Time;durP1;ratioP1;P1;durP2;ratioP2;P2;SDS_P1;SDS_P2;PMS_P1;PMS_P2;Temp;Humidity;BMP_temperature;BMP_pressure;BME280_temperature;BME280_humidity;BME280_pressure;Samples;Min_cycle;Max_cycle;Signal;HPM_P1;HPM_P2
2022/04/09 00:01:54;;;;;;;6.80;1.60;;;5.70;99.90;;;;;;5035401;23;20570;-75
2022/04/09 00:04:20;;;;;;;9.70;1.73;;;5.70;99.90;;;;;;5040077;28;21015;-74
2022/04/09 00:06:48;;;;;;;3.20;1.30;;;5.80;99.90;;;;;;5046794;28;20440;-75
2022/04/09 00:09:15;;;;;;;1.73;1.30;;;5.70;99.90;;;;;;5042503;28;20486;-75
2022/04/09 00:11:42;;;;;;;1.33;1.23;;;5.70;99.90;;;;;;5048545;28;20537;-74
2022/04/09 00:14:09;;;;;;;1.43;1.30;;;5.80;99.90;;;;;;5040813;28;20818;-75
2022/04/09 00:16:36;;;;;;;2.07;1.20;;;5.80;99.90;;;;;;5049595;28;20450;-74
2022/04/09 00:19:02;;;;;;;1.43;1.33;;;5.80;99.90;;;;;;5048476;28;20426;-74
2022/04/09 00:21:29;;;;;;;7.80;1.40;;;5.80;99.90;;;;;;5047697;28;20553;-75
2022/04/09 00:23:58;;;;;;;5.67;1.70;;;5.90;99.90;;;;;;5045114;28;20479;-76
2022/04/09 00:26:25;;;;;;;1.43;1.30;;;5.90;99.90;;;;;;5045113;28;20524;-74
2022/04/09 00:28:55;;;;;;;2.17;0.97;;;6.00;99.90;;;;;;5042082;28;21047;-74
2022/04/09 00:31:22;;;;;;;4.37;0.70;;;6.00;99.90;;;;;;5039585;28;20463;-76
2022/04/09 00:33:52;;;;;;;1.30;1.10;;;5.90;99.90;;;;;;5048458;28;20460;-75
2022/04/09 00:36:19;;;;;;;1.20;1.00;;;5.80;99.90;;;;;;5045701;28;20444;-76
2022/04/09 00:38:53;;;;;;;1.30;1.10;;;5.80;99.90;;;;;;5038402;28;21081;-76
2022/04/09 00:41:21;;;;;;;1.57;1.47;;;5.70;99.90;;;;;;5043477;28;20452;-76
2022/04/09 00:43:53;;;;;;;1.97;1.17;;;5.70;99.90;;;;;;5045606;28;20539;-75
2022/04/09 00:46:20;;;;;;;1.50;1.23;;;5.60;99.90;;;;;;5040570;28;20457;-74
2022/04/09 00:48:50;;;;;;;1.73;1.30;;;5.60;99.90;;;;;;5044653;28;20467;-76
2022/04/09 00:51:18;;;;;;;1.47;1.30;;;5.70;99.90;;;;;;5043552;28;20990;-74
2022/04/09 00:53:51;;;;;;;1.33;0.87;;;5.70;99.90;;;;;;5043792;28;20451;-75
2022/04/09 00:56:21;;;;;;;5.93;1.30;;;5.70;99.90;;;;;;5042851;28;21059;-75
2022/04/09 00:58:55;;;;;;;8.33;1.93;;;5.70;99.90;;;;;;5038546;28;20550;-76
2022/04/09 01:01:27;;;;;;;1.40;1.30;;;5.60;99.90;;;;;;5040474;28;21156;-74
2022/04/09 01:03:55;;;;;;;1.27;1.17;;;5.50;99.90;;;;;;5039527;28;20475;-75
2022/04/09 01:06:22;;;;;;;1.00;0.80;;;5.60;99.90;;;;;;5040870;28;20459;-75
2022/04/09 01:08:49;;;;;;;4.50;1.47;;;5.60;99.90;;;;;;5050960;28;20490;-75
2022/04/09 01:11:16;;;;;;;9.47;1.73;;;5.80;99.90;;;;;;5043483;28;20434;-75
2022/04/09 01:13:46;;;;;;;2.03;1.33;;;5.90;99.90;;;;;;5040434;28;20482;-74
2022/04/09 01:16:14;;;;;;;2.13;1.63;;;5.90;99.90;;;;;;5042268;28;20642;-75
2022/04/09 01:18:41;;;;;;;6.73;1.40;;;5.80;99.90;;;;;;5045356;28;20451;-75
2022/04/09 01:21:08;;;;;;;2.43;2.13;;;5.90;99.90;;;;;;5037768;28;20433;-76
2022/04/09 01:23:37;;;;;;;6.70;1.87;;;6.00;99.90;;;;;;5041055;28;21259;-76
2022/04/09 01:26:06;;;;;;;3.00;1.50;;;6.10;99.90;;;;;;5048387;28;20621;-74
2022/04/09 01:28:34;;;;;;;1.80;1.50;;;6.10;99.90;;;;;;5039830;28;20938;-74
2022/04/09 01:31:01;;;;;;;2.70;1.50;;;6.20;99.90;;;;;;5048984;28;20794;-74
2022/04/09 01:33:28;;;;;;;5.00;2.40;;;6.00;99.90;;;;;;5044317;28;20519;-75
2022/04/09 01:35:57;;;;;;;11.70;1.90;;;6.00;99.90;;;;;;5047151;28;20813;-76
2022/04/09 01:38:28;;;;;;;4.33;2.00;;;6.00;99.90;;;;;;5041992;28;20455;-76
2022/04/09 01:40:59;;;;;;;2.80;1.80;;;6.00;99.90;;;;;;5047710;28;20915;-74
2022/04/09 01:43:32;;;;;;;1.80;1.53;;;6.10;99.90;;;;;;5043362;28;20522;-75
2022/04/09 01:45:59;;;;;;;1.63;1.37;;;6.10;99.90;;;;;;5045067;28;20504;-75
2022/04/09 01:48:26;;;;;;;4.70;1.40;;;6.00;99.90;;;;;;5039358;28;20468;-75
2022/04/09 01:50:53;;;;;;;3.20;1.93;;;5.90;99.90;;;;;;5049605;28;20422;-75
2022/04/09 01:53:19;;;;;;;5.97;1.47;;;5.90;99.90;;;;;;5053352;28;20445;-74
2022/04/09 01:55:46;;;;;;;2.10;1.33;;;5.80;99.90;;;;;;5041351;28;20436;-75
2022/04/09 01:58:19;;;;;;;4.33;1.47;;;5.80;99.90;;;;;;5041739;28;20440;-76
2022/04/09 02:00:46;;;;;;;2.50;1.27;;;5.80;99.90;;;;;;5043934;28;21504;-75
2022/04/09 02:03:14;;;;;;;4.03;1.67;;;5.80;99.90;;;;;;5045767;28;20472;-75
2022/04/09 02:05:41;;;;;;;5.07;1.73;;;5.90;99.90;;;;;;5053891;28;20469;-75
2022/04/09 02:08:08;;;;;;;8.20;1.70;;;5.90;99.90;;;;;;5051895;28;20818;-74
2022/04/09 02:10:37;;;;;;;8.67;1.57;;;5.90;99.90;;;;;;5047371;28;20449;-75
2022/04/09 02:13:04;;;;;;;3.83;1.40;;;5.90;99.90;;;;;;5047190;28;20744;-75
2022/04/09 02:15:32;;;;;;;8.00;2.13;;;5.80;99.90;;;;;;5046180;28;20550;-75
2022/04/09 02:18:01;;;;;;;7.67;2.03;;;5.80;99.90;;;;;;5048833;28;20441;-75
2022/04/09 02:20:29;;;;;;;5.00;2.10;;;5.80;99.90;;;;;;5051683;28;20623;-75
2022/04/09 02:22:56;;;;;;;4.80;2.13;;;5.90;99.90;;;;;;5050847;28;20494;-75
2022/04/09 02:25:25;;;;;;;7.73;2.47;;;5.90;99.90;;;;;;5048696;28;20432;-76
2022/04/09 02:27:52;;;;;;;3.23;2.07;;;5.90;99.90;;;;;;5054899;28;20437;-76
2022/04/09 02:30:18;;;;;;;5.33;1.37;;;6.00;99.90;;;;;;5041650;28;20434;-74
2022/04/09 02:32:50;;;;;;;4.80;2.17;;;6.10;99.90;;;;;;5045062;28;20488;-74
2022/04/09 02:35:18;;;;;;;2.50;1.63;;;6.00;99.90;;;;;;5052472;28;20452;-76
2022/04/09 02:37:48;;;;;;;2.43;1.20;;;5.90;99.90;;;;;;5049496;28;21124;-76
2022/04/09 02:40:15;;;;;;;20.43;1.33;;;5.90;99.90;;;;;;5052545;28;20707;-75
2022/04/09 02:42:43;;;;;;;2.83;1.53;;;5.90;99.90;;;;;;5049377;28;20552;-76
2022/04/09 02:45:12;;;;;;;1.70;1.40;;;5.80;99.90;;;;;;5046288;28;20847;-77
2022/04/09 02:47:40;;;;;;;9.73;2.20;;;5.80;99.90;;;;;;5045325;28;20436;-76
2022/04/09 02:50:19;;;;;;;7.87;2.10;;;5.90;99.90;;;;;;5048541;28;20431;-75
2022/04/09 02:52:46;;;;;;;8.87;2.40;;;5.90;99.90;;;;;;5047182;28;20501;-75
2022/04/09 02:55:15;;;;;;;10.90;1.80;;;5.90;99.90;;;;;;5048840;28;20441;-75
2022/04/09 02:57:42;;;;;;;2.80;1.33;;;5.90;99.90;;;;;;5040211;28;20652;-76
2022/04/09 03:00:12;;;;;;;2.10;1.40;;;5.80;99.90;;;;;;5049901;28;20430;-76
2022/04/09 03:02:39;;;;;;;15.10;3.00;;;5.80;99.90;;;;;;5049986;28;20537;-75
2022/04/09 03:05:08;;;;;;;2.43;1.93;;;5.90;99.90;;;;;;5042523;28;20802;-75
2022/04/09 03:07:35;;;;;;;2.23;1.30;;;5.90;99.90;;;;;;5051866;28;20449;-76
2022/04/09 03:10:02;;;;;;;3.73;2.00;;;5.90;99.90;;;;;;5051306;28;20513;-75
2022/04/09 03:12:31;;;;;;;2.20;1.83;;;6.00;99.90;;;;;;5045400;28;20454;-76
2022/04/09 03:14:58;;;;;;;2.20;1.50;;;6.00;99.90;;;;;;5046547;28;21412;-73
2022/04/09 03:17:25;;;;;;;3.57;2.17;;;5.90;99.90;;;;;;5048615;28;20433;-74
2022/04/09 03:19:52;;;;;;;7.20;2.53;;;6.00;99.90;;;;;;5044777;28;20467;-75
2022/04/09 03:22:21;;;;;;;4.50;2.33;;;5.90;99.90;;;;;;5042255;28;20881;-75
2022/04/09 03:24:48;;;;;;;3.03;1.77;;;5.90;99.90;;;;;;5043361;28;20491;-74
2022/04/09 03:27:15;;;;;;;2.63;1.83;;;5.80;99.90;;;;;;5058056;28;20459;-74
2022/04/09 03:29:47;;;;;;;10.20;1.90;;;5.80;99.90;;;;;;5046025;28;20486;-74
2022/04/09 03:32:14;;;;;;;2.30;1.50;;;5.80;99.90;;;;;;5046192;28;20482;-75
2022/04/09 03:34:44;;;;;;;4.60;1.83;;;5.90;99.90;;;;;;5049764;28;20491;-74
2022/04/09 03:37:11;;;;;;;3.07;1.30;;;5.90;99.90;;;;;;5053426;28;20468;-75
2022/04/09 03:39:41;;;;;;;5.40;1.53;;;5.80;99.90;;;;;;5040448;28;20434;-74
2022/04/09 03:42:08;;;;;;;4.70;1.77;;;5.70;99.90;;;;;;5051056;28;20456;-75
2022/04/09 03:44:35;;;;;;;3.43;1.13;;;5.70;99.90;;;;;;5050778;28;20461;-74
2022/04/09 03:47:05;;;;;;;1.93;1.03;;;5.60;99.90;;;;;;5043733;28;20471;-75
2022/04/09 03:49:32;;;;;;;2.73;1.57;;;5.60;99.90;;;;;;5042786;28;20524;-75
2022/04/09 03:51:59;;;;;;;4.70;1.23;;;5.60;99.90;;;;;;5050597;28;20930;-75
2022/04/09 03:54:26;;;;;;;6.50;2.50;;;5.40;99.90;;;;;;5040839;28;20459;-75
2022/04/09 03:56:55;;;;;;;2.30;1.60;;;5.40;99.90;;;;;;5051834;28;20941;-75
2022/04/09 03:59:21;;;;;;;2.10;1.00;;;5.40;99.90;;;;;;5052117;28;20548;-76
2022/04/09 04:01:49;;;;;;;3.53;2.23;;;5.40;99.90;;;;;;5045508;28;20582;-75
2022/04/09 04:04:16;;;;;;;2.40;1.70;;;5.50;99.90;;;;;;5039216;28;20987;-75
2022/04/09 04:06:42;;;;;;;2.10;1.27;;;5.60;99.90;;;;;;5049806;28;20457;-75
2022/04/09 04:09:09;;;;;;;11.30;2.87;;;5.60;99.90;;;;;;5058615;28;20465;-74
2022/04/09 04:11:36;;;;;;;6.93;1.57;;;5.60;99.90;;;;;;5054215;28;20474;-75
2022/04/09 04:14:04;;;;;;;1.30;1.20;;;5.60;99.90;;;;;;5051162;28;20528;-75
2022/04/09 04:16:31;;;;;;;5.40;1.40;;;5.50;99.90;;;;;;5052477;28;20470;-75
2022/04/09 04:18:58;;;;;;;1.73;1.63;;;5.60;99.90;;;;;;5049340;28;20467;-75
2022/04/09 04:21:24;;;;;;;3.30;1.40;;;5.60;99.90;;;;;;5054001;28;20497;-75
2022/04/09 04:23:51;;;;;;;3.20;1.23;;;5.60;99.90;;;;;;5048020;28;20465;-75
2022/04/09 04:26:17;;;;;;;4.00;1.73;;;5.50;99.90;;;;;;5051249;28;20433;-76
2022/04/09 04:28:48;;;;;;;6.70;2.50;;;5.40;99.90;;;;;;5048911;28;21053;-75
2022/04/09 04:31:16;;;;;;;1.87;1.50;;;5.30;99.90;;;;;;5052017;28;20441;-75
2022/04/09 04:33:43;;;;;;;1.33;1.13;;;5.30;99.90;;;;;;5051300;28;20457;-75
2022/04/09 04:36:09;;;;;;;1.83;1.73;;;5.20;99.90;;;;;;5051767;28;20542;-74
2022/04/09 04:38:36;;;;;;;4.30;1.60;;;5.20;99.90;;;;;;5053670;28;20504;-74
2022/04/09 04:41:04;;;;;;;3.07;1.20;;;5.10;99.90;;;;;;5054041;28;20421;-74
2022/04/09 04:43:33;;;;;;;2.13;1.97;;;5.10;99.90;;;;;;5051944;28;20609;-75
2022/04/09 04:46:00;;;;;;;4.93;2.07;;;5.10;99.90;;;;;;5052505;28;20576;-74
2022/04/09 04:48:28;;;;;;;1.80;1.23;;;5.10;99.90;;;;;;5061945;28;20518;-74
2022/04/09 04:50:55;;;;;;;1.57;1.30;;;5.10;99.90;;;;;;5051963;28;20466;-74
2022/04/09 04:53:22;;;;;;;5.00;2.90;;;5.00;99.90;;;;;;5045275;28;20579;-75
2022/04/09 04:55:48;;;;;;;1.10;1.00;;;5.00;99.90;;;;;;5046300;28;20434;-75
2022/04/09 04:58:19;;;;;;;2.43;1.53;;;5.00;99.90;;;;;;5049160;28;20466;-75
2022/04/09 05:00:45;;;;;;;2.37;1.57;;;5.10;99.90;;;;;;5050986;28;20462;-75
2022/04/09 05:03:12;;;;;;;2.13;1.43;;;5.10;99.90;;;;;;5042635;28;20466;-75
2022/04/09 05:05:43;;;;;;;1.90;1.40;;;5.10;99.90;;;;;;5051082;28;20458;-75
2022/04/09 05:08:10;;;;;;;3.67;1.40;;;5.10;99.90;;;;;;5053333;28;20452;-74
2022/04/09 05:10:37;;;;;;;4.53;2.90;;;5.10;99.90;;;;;;5053530;28;20533;-75
2022/04/09 05:13:04;;;;;;;3.00;2.00;;;5.10;99.90;;;;;;5050279;28;20870;-74
2022/04/09 05:15:31;;;;;;;4.93;2.00;;;5.20;99.90;;;;;;5047341;28;20455;-74
2022/04/09 05:17:57;;;;;;;2.60;1.70;;;5.20;99.90;;;;;;5031954;28;21230;-75
2022/04/09 05:20:24;;;;;;;2.50;1.93;;;5.30;99.90;;;;;;5051303;28;20946;-75
2022/04/09 05:22:52;;;;;;;18.50;2.07;;;5.30;99.90;;;;;;5055206;28;20560;-74
2022/04/09 05:25:20;;;;;;;4.30;1.17;;;5.30;99.90;;;;;;5057554;28;20449;-74
2022/04/09 05:27:47;;;;;;;3.37;1.60;;;5.50;99.90;;;;;;5053455;28;20462;-74
2022/04/09 05:30:17;;;;;;;4.23;1.73;;;5.60;99.90;;;;;;5052459;28;20429;-74
2022/04/09 05:32:44;;;;;;;1.30;1.10;;;5.60;99.90;;;;;;5059811;28;20469;-74
2022/04/09 05:35:16;;;;;;;5.70;1.47;;;5.70;99.90;;;;;;5052782;28;20568;-74
2022/04/09 05:37:45;;;;;;;5.43;1.90;;;5.70;99.90;;;;;;5047648;28;20440;-73
2022/04/09 05:40:13;;;;;;;7.13;2.40;;;5.80;99.90;;;;;;5052529;28;20536;-74
2022/04/09 05:42:40;;;;;;;3.47;1.60;;;5.80;99.90;;;;;;5054540;28;20454;-74
2022/04/09 05:45:07;;;;;;;3.30;2.83;;;5.90;99.90;;;;;;5048453;28;20528;-73
2022/04/09 05:47:34;;;;;;;2.53;2.33;;;5.90;99.90;;;;;;5057304;28;20454;-74
2022/04/09 05:50:01;;;;;;;3.60;2.27;;;5.80;99.90;;;;;;5051727;28;20509;-73
2022/04/09 05:52:27;;;;;;;2.60;1.70;;;5.80;99.90;;;;;;5055175;28;21150;-74
2022/04/09 05:54:54;;;;;;;7.60;1.73;;;5.70;99.90;;;;;;5049325;28;20467;-74
2022/04/09 05:57:22;;;;;;;4.53;2.20;;;5.80;99.90;;;;;;5055459;28;20545;-74
2022/04/09 05:59:49;;;;;;;3.13;1.83;;;5.80;99.90;;;;;;5048234;28;20459;-75
2022/04/09 06:02:16;;;;;;;5.10;1.87;;;5.90;99.90;;;;;;5084037;22;20438;-74
2022/04/09 06:04:42;;;;;;;6.23;1.60;;;6.00;99.90;;;;;;5052602;28;20453;-74
2022/04/09 06:07:13;;;;;;;3.50;2.67;;;6.00;99.90;;;;;;5058765;28;20428;-76
2022/04/09 06:09:40;;;;;;;2.43;1.70;;;6.00;99.90;;;;;;5055243;28;20458;-74
2022/04/09 06:12:07;;;;;;;11.40;1.83;;;5.80;99.90;;;;;;5056163;28;20470;-75
2022/04/09 06:14:35;;;;;;;3.77;2.07;;;5.90;99.90;;;;;;5062101;28;20750;-75
2022/04/09 06:17:02;;;;;;;6.00;1.30;;;6.00;99.90;;;;;;5070611;28;20444;-75
2022/04/09 06:19:31;;;;;;;4.93;2.40;;;5.90;99.90;;;;;;5068763;28;20429;-75
2022/04/09 06:21:57;;;;;;;2.33;1.70;;;5.90;99.90;;;;;;5062339;28;20434;-75
2022/04/09 06:24:24;;;;;;;1.43;1.33;;;5.80;99.90;;;;;;5068655;28;21069;-76
2022/04/09 06:26:51;;;;;;;2.60;1.43;;;5.90;99.90;;;;;;5066120;28;20455;-75
2022/04/09 06:29:18;;;;;;;1.57;1.23;;;6.00;99.90;;;;;;5064248;28;20458;-73
2022/04/09 06:31:47;;;;;;;5.70;2.30;;;6.00;99.90;;;;;;5051783;28;20425;-73
2022/04/09 06:34:14;;;;;;;1.67;1.43;;;5.90;99.90;;;;;;5058759;28;20790;-75
2022/04/09 06:36:40;;;;;;;17.87;1.77;;;6.10;99.90;;;;;;5045679;28;20450;-75
2022/04/09 06:39:07;;;;;;;7.00;2.40;;;6.80;99.90;;;;;;5047416;28;20458;-76
2022/04/09 06:41:37;;;;;;;8.63;2.10;;;7.30;99.90;;;;;;5052101;28;20507;-76
2022/04/09 06:44:06;;;;;;;3.40;1.70;;;7.30;99.90;;;;;;5051835;28;20515;-75
2022/04/09 06:46:33;;;;;;;2.80;1.70;;;7.40;99.90;;;;;;5045937;28;20998;-75
2022/04/09 06:49:02;;;;;;;4.43;1.80;;;7.30;99.90;;;;;;5046293;28;20564;-74
2022/04/09 06:51:29;;;;;;;3.00;2.03;;;7.10;99.90;;;;;;5047215;28;20448;-74
2022/04/09 06:53:55;;;;;;;6.30;1.20;;;7.00;99.90;;;;;;5043620;28;20538;-74
2022/04/09 06:56:22;;;;;;;3.20;1.40;;;6.90;99.90;;;;;;5046160;28;20437;-73
2022/04/09 06:58:49;;;;;;;3.60;1.67;;;7.00;99.90;;;;;;5049676;28;20830;-74
2022/04/09 07:01:16;;;;;;;1.87;1.47;;;7.00;99.90;;;;;;5052672;28;20454;-74
2022/04/09 07:03:42;;;;;;;1.33;1.10;;;7.00;99.90;;;;;;5048122;28;20553;-74
2022/04/09 07:06:11;;;;;;;1.90;1.30;;;7.30;99.90;;;;;;5051745;28;20485;-74
2022/04/09 07:08:39;;;;;;;2.50;1.27;;;7.80;99.90;;;;;;5055629;28;20508;-75
2022/04/09 07:11:06;;;;;;;1.10;1.00;;;8.00;99.90;;;;;;5058196;28;20971;-75
2022/04/09 07:13:32;;;;;;;4.40;1.57;;;8.20;99.90;;;;;;5053169;28;20486;-75
2022/04/09 07:15:59;;;;;;;1.90;1.30;;;8.20;99.90;;;;;;5048159;28;20801;-75
2022/04/09 07:18:26;;;;;;;1.00;0.80;;;8.10;99.90;;;;;;5057203;28;20464;-74
2022/04/09 07:20:53;;;;;;;3.67;1.43;;;7.80;99.90;;;;;;5053109;28;20549;-74
2022/04/09 07:23:21;;;;;;;11.07;1.70;;;7.60;99.90;;;;;;5054578;28;20487;-74
2022/04/09 07:25:48;;;;;;;1.43;1.33;;;7.60;99.90;;;;;;5056142;28;20482;-75
2022/04/09 07:28:14;;;;;;;6.23;2.07;;;7.70;99.90;;;;;;5053343;28;20460;-75
2022/04/09 07:30:42;;;;;;;6.00;1.37;;;7.60;99.90;;;;;;5051771;28;20952;-75
2022/04/09 07:33:08;;;;;;;7.90;2.17;;;7.40;99.90;;;;;;5056142;28;21081;-75
2022/04/09 07:35:36;;;;;;;8.20;1.27;;;7.30;99.90;;;;;;5062986;28;20437;-75
2022/04/09 07:38:04;;;;;;;2.37;2.00;;;7.60;99.90;;;;;;5053675;28;20466;-73
2022/04/09 07:40:32;;;;;;;2.37;1.33;;;7.40;99.90;;;;;;5052955;28;20553;-74
2022/04/09 07:43:00;;;;;;;2.40;1.30;;;7.00;99.90;;;;;;5054021;28;20493;-75
2022/04/09 07:45:28;;;;;;;1.17;1.00;;;7.00;99.90;;;;;;5056125;28;20486;-74
2022/04/09 07:47:56;;;;;;;5.80;1.77;;;7.10;99.90;;;;;;5051846;28;20562;-76
2022/04/09 07:50:23;;;;;;;1.20;1.10;;;7.30;99.90;;;;;;5054929;28;20802;-74
2022/04/09 07:52:50;;;;;;;4.90;2.00;;;7.60;99.90;;;;;;5049473;28;20452;-74
2022/04/09 07:55:17;;;;;;;4.50;1.60;;;7.90;99.90;;;;;;5052475;28;20471;-74
2022/04/09 07:57:46;;;;;;;6.83;1.70;;;7.90;99.90;;;;;;5049910;28;20455;-74
2022/04/09 08:00:14;;;;;;;4.33;1.30;;;8.10;99.90;;;;;;5056957;28;20448;-74
2022/04/09 08:02:41;;;;;;;1.73;1.30;;;9.00;99.90;;;;;;5053048;28;20457;-73
2022/04/09 08:05:10;;;;;;;1.43;1.00;;;10.10;99.90;;;;;;5058413;28;20489;-74
2022/04/09 08:07:37;;;;;;;7.50;2.43;;;10.60;99.90;;;;;;5049672;28;20472;-73
2022/04/09 08:10:05;;;;;;;2.33;0.90;;;10.80;99.90;;;;;;5046628;28;20875;-76
2022/04/09 08:12:31;;;;;;;2.30;1.37;;;10.50;99.90;;;;;;5046048;28;20516;-73
2022/04/09 08:15:00;;;;;;;3.63;1.57;;;10.10;99.90;;;;;;5045416;28;20438;-74
2022/04/09 08:17:27;;;;;;;3.03;1.47;;;10.40;99.90;;;;;;5038878;28;20445;-75
2022/04/09 08:19:55;;;;;;;2.93;1.53;;;10.30;99.90;;;;;;5050548;28;20520;-74
2022/04/09 08:22:23;;;;;;;4.07;1.90;;;9.50;99.90;;;;;;5042889;28;20557;-74
2022/04/09 08:24:49;;;;;;;6.10;1.40;;;9.00;99.90;;;;;;5050884;28;20625;-73
2022/04/09 08:27:16;;;;;;;2.50;1.33;;;9.00;99.90;;;;;;5045029;28;20566;-72
2022/04/09 08:29:42;;;;;;;3.03;1.97;;;9.00;99.90;;;;;;5043607;28;20485;-73
2022/04/09 08:32:10;;;;;;;1.20;1.00;;;8.90;99.90;;;;;;5058602;28;21037;-74
2022/04/09 08:34:37;;;;;;;1.17;1.07;;;9.50;99.90;;;;;;5045866;28;21046;-74
2022/04/09 08:37:06;;;;;;;2.47;1.70;;;10.40;99.90;;;;;;5043667;28;20830;-74
2022/04/09 08:39:33;;;;;;;2.13;1.57;;;11.20;99.90;;;;;;5050493;28;20463;-74
2022/04/09 08:42:01;;;;;;;1.40;1.00;;;11.20;99.90;;;;;;5047111;28;21047;-74
2022/04/09 08:44:29;;;;;;;4.30;1.33;;;11.70;99.90;;;;;;5050543;28;20455;-74
2022/04/09 08:46:56;;;;;;;4.10;1.90;;;11.40;99.90;;;;;;5044106;28;20508;-73
2022/04/09 08:49:24;;;;;;;5.20;1.37;;;11.10;99.90;;;;;;5040038;28;22868;-74
2022/04/09 08:51:51;;;;;;;3.67;2.07;;;10.80;99.90;;;;;;5053422;28;20847;-74
2022/04/09 08:54:18;;;;;;;6.03;1.80;;;11.00;99.90;;;;;;5040592;28;20547;-74
2022/04/09 08:56:45;;;;;;;1.20;1.10;;;11.10;99.90;;;;;;5046011;28;20890;-74
2022/04/09 08:59:12;;;;;;;20.63;1.60;;;10.70;99.90;;;;;;5047974;28;20843;-73
2022/04/09 09:01:41;;;;;;;4.00;1.67;;;10.30;99.90;;;;;;5042185;28;20462;-74
2022/04/09 09:04:07;;;;;;;1.20;1.07;;;10.00;99.90;;;;;;5039909;28;20469;-74
2022/04/09 09:06:40;;;;;;;4.63;1.50;;;10.00;99.90;;;;;;5049427;28;21339;-75
2022/04/09 09:09:08;;;;;;;12.43;2.50;;;10.10;99.90;;;;;;5048109;28;20457;-73
2022/04/09 09:11:45;;;;;;;15.03;3.50;;;9.70;99.90;;;;;;5043615;28;20463;-74
2022/04/09 09:14:24;;;;;;;3.43;1.83;;;9.40;99.90;;;;;;5051939;28;20489;-75
2022/04/09 09:16:51;;;;;;;4.63;2.47;;;9.70;99.90;;;;;;5047849;28;20772;-76
2022/04/09 09:19:18;;;;;;;3.67;1.97;;;10.10;99.90;;;;;;5048951;28;20462;-74
2022/04/09 09:21:54;;;;;;;9.20;1.90;;;10.10;99.90;;;;;;5046754;28;20458;-75
2022/04/09 09:24:20;;;;;;;2.60;1.70;;;10.00;99.90;;;;;;5048085;28;20617;-77
2022/04/09 09:26:56;;;;;;;6.30;1.33;;;10.40;99.90;;;;;;5039701;28;21074;-72
2022/04/09 09:29:28;;;;;;;3.93;1.50;;;10.30;99.90;;;;;;5048572;28;20493;-74
2022/04/09 09:31:56;;;;;;;2.70;1.80;;;9.90;99.90;;;;;;5049264;28;20541;-74
2022/04/09 09:34:23;;;;;;;2.67;1.60;;;10.70;99.90;;;;;;5051039;28;20456;-73
2022/04/09 09:36:50;;;;;;;8.83;3.43;;;11.20;99.90;;;;;;5048573;28;20458;-74
2022/04/09 09:39:19;;;;;;;5.70;2.73;;;12.30;99.90;;;;;;5046949;28;20466;-74
2022/04/09 09:41:49;;;;;;;2.07;1.30;;;13.30;99.90;;;;;;5064719;28;20459;-73
2022/04/09 09:44:17;;;;;;;1.20;0.90;;;12.90;99.90;;;;;;5048708;28;20466;-75
2022/04/09 09:46:49;;;;;;;1.13;0.90;;;11.20;99.90;;;;;;5055826;28;20621;-74
2022/04/09 09:49:16;;;;;;;1.30;0.90;;;8.80;99.90;;;;;;5061395;28;20486;-74
2022/04/09 09:51:43;;;;;;;2.50;0.90;;;7.10;99.90;;;;;;5053363;28;20432;-73
2022/04/09 09:54:11;;;;;;;1.00;0.80;;;6.30;99.90;;;;;;5051454;28;20486;-72
2022/04/09 09:56:42;;;;;;;1.57;0.70;;;6.30;99.90;;;;;;5055123;28;20455;-74
2022/04/09 09:59:10;;;;;;;2.90;1.30;;;6.50;99.90;;;;;;5056535;28;20509;-73
2022/04/09 10:01:38;;;;;;;1.30;1.20;;;6.50;99.90;;;;;;5042847;28;20514;-73
2022/04/09 10:04:07;;;;;;;1.67;1.10;;;6.40;99.90;;;;;;5047310;28;20495;-73
2022/04/09 10:06:34;;;;;;;1.00;0.77;;;7.70;99.90;;;;;;5046045;28;20791;-74
2022/04/09 10:09:02;;;;;;;3.07;1.30;;;9.40;99.90;;;;;;5052871;28;20437;-75
2022/04/09 10:11:30;;;;;;;1.23;1.03;;;10.80;99.90;;;;;;5040029;28;20547;-73
2022/04/09 10:14:01;;;;;;;1.10;0.80;;;11.70;99.90;;;;;;5044053;28;20478;-73
2022/04/09 10:16:30;;;;;;;1.20;1.10;;;12.10;99.90;;;;;;5037973;28;20910;-73
2022/04/09 10:19:04;;;;;;;1.10;0.90;;;12.90;99.90;;;;;;5043864;28;20465;-75
2022/04/09 10:21:33;;;;;;;2.60;1.00;;;13.10;99.90;;;;;;5044207;28;20582;-74
2022/04/09 10:24:01;;;;;;;6.53;1.00;;;13.00;99.90;;;;;;5045610;28;20471;-75
2022/04/09 10:26:29;;;;;;;1.40;1.00;;;13.90;99.90;;;;;;5063050;28;20885;-74
2022/04/09 10:29:07;;;;;;;2.53;1.00;;;14.30;99.90;;;;;;5062390;28;20461;-75
2022/04/09 10:31:36;;;;;;;2.20;1.23;;;14.60;99.90;;;;;;5056233;28;20534;-75
2022/04/09 10:34:04;;;;;;;1.70;1.00;;;14.90;99.90;;;;;;5060936;28;20892;-75
2022/04/09 10:37:05;;;;;;;7.13;2.60;;;14.80;99.90;;;;;;5062122;28;20846;-72
2022/04/09 10:39:45;;;;;;;2.50;1.53;;;13.70;99.90;;;;;;5047524;28;20465;-74
2022/04/09 10:42:47;;;;;;;2.03;1.83;;;13.90;99.90;;;;;;5054877;28;20865;-75
2022/04/09 10:45:15;;;;;;;2.63;1.50;;;13.20;99.90;;;;;;5063984;28;20458;-74
2022/04/09 10:48:10;;;;;;;1.00;0.80;;;12.00;99.90;;;;;;5056204;28;20834;-73
2022/04/09 10:50:55;;;;;;;1.83;0.73;;;8.60;99.90;;;;;;5064522;28;20490;-74
2022/04/09 10:53:24;;;;;;;1.03;0.90;;;7.30;99.90;;;;;;5061157;28;20482;-73
2022/04/09 10:56:11;;;;;;;1.97;1.43;;;7.20;99.90;;;;;;5058172;28;20455;-73
2022/04/09 10:58:59;;;;;;;1.97;0.90;;;7.40;99.90;;;;;;5058632;28;20450;-74
2022/04/09 11:01:55;;;;;;;1.10;0.90;;;7.20;99.90;;;;;;5060427;28;20441;-74
2022/04/09 11:04:44;;;;;;;1.20;1.00;;;7.30;99.90;;;;;;5051199;28;20468;-74
2022/04/09 11:07:14;;;;;;;1.40;1.20;;;7.40;99.90;;;;;;5051509;28;20482;-75
2022/04/09 11:09:57;;;;;;;2.43;1.03;;;7.50;99.90;;;;;;5052284;28;20452;-72
2022/04/09 11:12:25;;;;;;;2.07;0.90;;;9.30;99.90;;;;;;5037666;28;20659;-73
2022/04/09 11:14:55;;;;;;;1.70;1.00;;;10.20;99.90;;;;;;5058678;28;20477;-73
2022/04/09 11:17:29;;;;;;;1.10;0.90;;;9.60;99.90;;;;;;5051777;28;20432;-73
2022/04/09 11:19:57;;;;;;;1.10;0.90;;;8.80;99.90;;;;;;5050819;28;20441;-73
2022/04/09 11:22:32;;;;;;;24.73;1.90;;;8.50;99.90;;;;;;5056093;28;20509;-74
2022/04/09 11:24:59;;;;;;;2.10;1.17;;;8.50;99.90;;;;;;5050778;28;20978;-74
2022/04/09 11:27:29;;;;;;;1.97;1.00;;;8.00;99.90;;;;;;5050055;28;20932;-74
2022/04/09 11:29:56;;;;;;;1.10;1.00;;;7.70;99.90;;;;;;5038062;28;20497;-73
2022/04/09 11:32:24;;;;;;;1.10;0.90;;;7.70;99.90;;;;;;5039545;28;20475;-73
2022/04/09 11:34:54;;;;;;;2.37;0.90;;;7.70;99.90;;;;;;5049836;28;20530;-74
2022/04/09 11:37:22;;;;;;;1.30;0.97;;;7.70;99.90;;;;;;5050996;28;20451;-74
2022/04/09 11:39:50;;;;;;;1.00;0.80;;;7.40;99.90;;;;;;5053997;28;20501;-74
2022/04/09 11:42:18;;;;;;;1.00;0.70;;;7.40;99.90;;;;;;5042034;28;20458;-73
2022/04/09 11:44:45;;;;;;;2.57;1.07;;;7.40;99.90;;;;;;5018763;28;20552;-73
2022/04/09 11:47:14;;;;;;;1.57;1.00;;;7.50;99.90;;;;;;5040452;28;20572;-71
2022/04/09 11:49:42;;;;;;;1.47;0.97;;;7.80;99.90;;;;;;5061391;28;20471;-72
2022/04/09 11:52:11;;;;;;;1.20;1.00;;;8.40;99.90;;;;;;5061836;28;20535;-73
2022/04/09 11:54:39;;;;;;;1.30;1.10;;;9.50;99.90;;;;;;5055429;28;20446;-74
2022/04/09 11:57:12;;;;;;;1.90;1.77;;;10.60;99.90;;;;;;5056018;28;20458;-73
2022/04/09 11:59:40;;;;;;;1.77;1.10;;;10.90;99.90;;;;;;5057876;28;20539;-74
2022/04/09 12:02:20;;;;;;;1.70;1.10;;;11.20;99.90;;;;;;5053112;28;20455;-73
2022/04/09 12:04:47;;;;;;;1.87;1.20;;;12.00;99.90;;;;;;5049892;22;20495;-74
2022/04/09 12:07:15;;;;;;;3.30;1.37;;;11.70;99.90;;;;;;5038390;28;20533;-74
2022/04/09 12:09:42;;;;;;;1.70;0.90;;;11.70;99.90;;;;;;5041492;28;20979;-75
2022/04/09 12:12:12;;;;;;;4.40;1.70;;;11.10;99.90;;;;;;5025137;28;20456;-75
2022/04/09 12:14:40;;;;;;;2.90;2.70;;;10.80;99.90;;;;;;5037511;28;20476;-76
2022/04/09 12:17:12;;;;;;;4.30;1.70;;;11.00;99.90;;;;;;5034461;28;20974;-75
2022/04/09 12:19:42;;;;;;;1.67;1.57;;;11.50;99.90;;;;;;5041374;28;20951;-76
2022/04/09 12:22:24;;;;;;;1.50;1.20;;;11.90;99.90;;;;;;5031248;28;20470;-76
2022/04/09 12:24:53;;;;;;;1.73;0.93;;;12.60;99.90;;;;;;5023384;28;20571;-76
2022/04/09 12:27:42;;;;;;;2.20;1.67;;;13.00;99.90;;;;;;5019391;28;20569;-75
2022/04/09 12:30:10;;;;;;;1.10;0.77;;;13.10;99.90;;;;;;5023293;28;20459;-75
2022/04/09 12:32:41;;;;;;;2.07;1.23;;;13.50;99.90;;;;;;5025235;28;20507;-74
2022/04/09 12:35:09;;;;;;;1.57;0.90;;;13.90;99.90;;;;;;5026131;28;20491;-76
2022/04/09 12:37:50;;;;;;;1.00;0.70;;;14.30;99.90;;;;;;5003701;28;21540;-75
2022/04/09 12:40:17;;;;;;;1.87;0.93;;;14.40;99.90;;;;;;5020315;28;20480;-76
2022/04/09 12:42:51;;;;;;;1.40;1.20;;;13.80;99.90;;;;;;5025999;28;20525;-75
2022/04/09 12:45:24;;;;;;;1.47;0.87;;;13.00;99.90;;;;;;5014776;28;20586;-73
2022/04/09 12:48:05;;;;;;;4.03;1.37;;;13.30;99.90;;;;;;5007259;28;20479;-76
2022/04/09 12:50:42;;;;;;;2.60;0.97;;;13.40;99.90;;;;;;5027574;28;20464;-73
2022/04/09 12:53:11;;;;;;;1.00;0.80;;;14.00;99.90;;;;;;5018616;28;20499;-75
2022/04/09 12:55:39;;;;;;;4.30;1.57;;;14.70;99.90;;;;;;5029183;28;20451;-75
2022/04/09 12:58:06;;;;;;;1.97;1.17;;;15.50;99.90;;;;;;5019459;28;20462;-75
2022/04/09 13:00:33;;;;;;;1.60;1.20;;;16.70;99.90;;;;;;5012727;28;20833;-73
2022/04/09 13:03:03;;;;;;;1.30;1.00;;;16.80;95.00;;;;;;5030383;28;20452;-74
2022/04/09 13:05:32;;;;;;;2.47;1.40;;;16.10;97.20;;;;;;5016017;28;20493;-75